Spencer Park, Nebraska
Current Conditions -  °F | °C
As of 12:53 PM on Monday 22 Dec 2014 (Local Time) from KHSI Reporting Station
Overcast Overcast  
Wind Chill: 38°   Ceiling: 4400
Heat Index: 46°   Visibility: 10mi
Dew Point: 32°   Wind: 23mph
Humidity: 58%   Direction: 320°NW
Pressure: 29.48"   Gusts: 31mph
Location:  40.5551°N, 98.369°W
Report Text: KHSI 221853Z AUTO 32020G27KT 10SM FEW032 OVC044 08/00 A2948 RMK AO2 PK WND 31027/1853 SLP987 T00780000
Loading
Personal Weather Stations






























Interactive Weather Map New forecast layout! Learn more

10-Day Weather Forecast

Advertisements
Track Severe Weather on mobile